Terminal Aerodrome Forecast
Issued by NWS

Home | Current Version | Previous Version | Text Only | Print | Product List | Glossary Off
Versions: 1 2 3 4 5 6 7 8 9 10 11 12 13 14 15 16 17 18

104
FTUS43 KABR 031732
TAFMBG
TAF
KMBG 031732Z 0318/0418 25005KT P6SM SCT060
     FM032100 25005KT P6SM BKN050
     FM041000 29007KT P6SM SCT040
     FM041500 31009KT P6SM SCT100=

USA.gov is the U.S. government's official web portal to all federal, state and local government web resources and services.